sensor_id;sensor_type;location;lat;lon;timestamp;pressure;altitude;pressure_sealevel;temperature;humidity
51249;BME280;39642;47.556;18.728;2022-10-16T00:01:30;100040.41;;;21.42;47.62
51249;BME280;39642;47.556;18.728;2022-10-16T00:03:58;100043.91;;;21.43;47.59
51249;BME280;39642;47.556;18.728;2022-10-16T00:06:25;100046.56;;;21.43;47.60
51249;BME280;39642;47.556;18.728;2022-10-16T00:08:51;100043.06;;;21.42;47.62
51249;BME280;39642;47.556;18.728;2022-10-16T00:11:23;100039.56;;;21.42;47.58
51249;BME280;39642;47.556;18.728;2022-10-16T00:13:50;100036.91;;;21.42;47.54
51249;BME280;39642;47.556;18.728;2022-10-16T00:16:18;100044.88;;;21.42;47.58
51249;BME280;39642;47.556;18.728;2022-10-16T00:18:44;100046.66;;;21.41;47.61
51249;BME280;39642;47.556;18.728;2022-10-16T00:21:13;100052.81;;;21.42;47.58
51249;BME280;39642;47.556;18.728;2022-10-16T00:23:40;100058.13;;;21.42;47.52
51249;BME280;39642;47.556;18.728;2022-10-16T00:26:14;100060.75;;;21.42;47.49
51249;BME280;39642;47.556;18.728;2022-10-16T00:28:40;100060.84;;;21.40;47.52
51249;BME280;39642;47.556;18.728;2022-10-16T00:31:09;100069.62;;;21.41;47.49
51249;BME280;39642;47.556;18.728;2022-10-16T00:33:37;100064.34;;;21.41;47.51
51249;BME280;39642;47.556;18.728;2022-10-16T00:36:04;100062.62;;;21.40;47.46
51249;BME280;39642;47.556;18.728;2022-10-16T00:38:30;100063.50;;;21.40;47.50
51249;BME280;39642;47.556;18.728;2022-10-16T00:40:56;100060.84;;;21.40;47.47
51249;BME280;39642;47.556;18.728;2022-10-16T00:43:40;100070.56;;;21.40;47.47
51249;BME280;39642;47.556;18.728;2022-10-16T00:46:27;100075.00;;;21.39;47.49
51249;BME280;39642;47.556;18.728;2022-10-16T00:49:09;100070.56;;;21.40;47.49
51249;BME280;39642;47.556;18.728;2022-10-16T00:51:38;100069.72;;;21.39;47.46
51249;BME280;39642;47.556;18.728;2022-10-16T00:54:10;100072.44;;;21.38;47.43
51249;BME280;39642;47.556;18.728;2022-10-16T00:56:37;100077.75;;;21.38;47.43
51249;BME280;39642;47.556;18.728;2022-10-16T00:59:06;100078.59;;;21.38;47.38
51249;BME280;39642;47.556;18.728;2022-10-16T01:01:34;100076.03;;;21.37;47.41
51249;BME280;39642;47.556;18.728;2022-10-16T01:04:00;100086.53;;;21.38;47.38
51249;BME280;39642;47.556;18.728;2022-10-16T01:06:40;100085.69;;;21.38;47.41
51249;BME280;39642;47.556;18.728;2022-10-16T01:20:54;100085.75;;;21.36;47.33
51249;BME280;39642;47.556;18.728;2022-10-16T01:28:53;100086.72;;;21.35;47.27
51249;BME280;39642;47.556;18.728;2022-10-16T01:31:24;100086.72;;;21.35;47.21
51249;BME280;39642;47.556;18.728;2022-10-16T01:33:59;100086.78;;;21.34;47.25
51249;BME280;39642;47.556;18.728;2022-10-16T01:36:31;100092.00;;;21.35;47.26
51249;BME280;39642;47.556;18.728;2022-10-16T01:39:02;100090.28;;;21.34;47.24
51249;BME280;39642;47.556;18.728;2022-10-16T01:41:38;100092.94;;;21.34;47.19
51249;BME280;39642;47.556;18.728;2022-10-16T01:44:19;100099.13;;;21.35;47.20
51249;BME280;39642;47.556;18.728;2022-10-16T01:46:50;100094.75;;;21.34;47.21
51249;BME280;39642;47.556;18.728;2022-10-16T01:49:17;100097.38;;;21.34;47.16
51249;BME280;39642;47.556;18.728;2022-10-16T01:51:46;100101.84;;;21.33;47.17
51249;BME280;39642;47.556;18.728;2022-10-16T01:54:14;100103.66;;;21.33;47.12
51249;BME280;39642;47.556;18.728;2022-10-16T01:56:43;100104.50;;;21.33;47.10
51249;BME280;39642;47.556;18.728;2022-10-16T01:59:21;100108.09;;;21.32;47.17
51249;BME280;39642;47.556;18.728;2022-10-16T02:01:52;100102.81;;;21.32;47.11
51249;BME280;39642;47.556;18.728;2022-10-16T02:04:26;100108.09;;;21.32;47.06
51249;BME280;39642;47.556;18.728;2022-10-16T02:06:53;100112.50;;;21.32;47.07
51249;BME280;39642;47.556;18.728;2022-10-16T02:09:20;100114.31;;;21.31;47.08
51249;BME280;39642;47.556;18.728;2022-10-16T02:11:46;100109.03;;;21.31;47.06
51249;BME280;39642;47.556;18.728;2022-10-16T02:14:14;100115.16;;;21.32;47.07
51249;BME280;39642;47.556;18.728;2022-10-16T02:16:43;100126.72;;;21.31;46.99
51249;BME280;39642;47.556;18.728;2022-10-16T02:19:10;100123.09;;;21.32;47.00
51249;BME280;39642;47.556;18.728;2022-10-16T02:21:43;100121.41;;;21.31;46.94
51249;BME280;39642;47.556;18.728;2022-10-16T02:26:48;100118.78;;;21.31;46.91
51249;BME280;39642;47.556;18.728;2022-10-16T02:29:17;100117.91;;;21.30;46.89
51249;BME280;39642;47.556;18.728;2022-10-16T02:31:50;100117.91;;;21.30;46.98
51249;BME280;39642;47.556;18.728;2022-10-16T02:34:19;100117.03;;;21.30;46.93
51249;BME280;39642;47.556;18.728;2022-10-16T02:36:47;100124.13;;;21.29;46.90
51249;BME280;39642;47.556;18.728;2022-10-16T02:39:15;100126.78;;;21.29;46.87
51249;BME280;39642;47.556;18.728;2022-10-16T02:41:42;100128.59;;;21.29;46.86
51249;BME280;39642;47.556;18.728;2022-10-16T02:44:08;100132.94;;;21.30;46.84
51249;BME280;39642;47.556;18.728;2022-10-16T02:46:34;100136.53;;;21.29;46.87
51249;BME280;39642;47.556;18.728;2022-10-16T02:49:00;100138.22;;;21.30;46.83
51249;BME280;39642;47.556;18.728;2022-10-16T02:51:26;100144.47;;;21.29;46.78
51249;BME280;39642;47.556;18.728;2022-10-16T02:53:52;100152.44;;;21.29;46.71
51249;BME280;39642;47.556;18.728;2022-10-16T02:56:18;100148.06;;;21.28;46.81
51249;BME280;39642;47.556;18.728;2022-10-16T02:58:44;100151.59;;;21.28;46.72
51249;BME280;39642;47.556;18.728;2022-10-16T03:01:10;100144.56;;;21.27;46.79
51249;BME280;39642;47.556;18.728;2022-10-16T03:03:38;100140.09;;;21.28;46.73
51249;BME280;39642;47.556;18.728;2022-10-16T03:06:04;100145.41;;;21.28;46.64
51249;BME280;39642;47.556;18.728;2022-10-16T03:08:31;100155.16;;;21.27;46.72
51249;BME280;39642;47.556;18.728;2022-10-16T03:10:57;100150.69;;;21.28;46.64
51249;BME280;39642;47.556;18.728;2022-10-16T03:13:23;100149.00;;;21.27;46.65
51249;BME280;39642;47.556;18.728;2022-10-16T03:15:49;100149.84;;;21.27;46.65
51249;BME280;39642;47.556;18.728;2022-10-16T03:18:14;100154.31;;;21.27;46.65
51249;BME280;39642;47.556;18.728;2022-10-16T03:20:42;100163.19;;;21.26;46.64
51249;BME280;39642;47.556;18.728;2022-10-16T03:23:08;100156.97;;;21.27;46.55
51249;BME280;39642;47.556;18.728;2022-10-16T03:25:34;100157.91;;;21.26;46.64
51249;BME280;39642;47.556;18.728;2022-10-16T03:28:00;100162.31;;;21.25;46.57
51249;BME280;39642;47.556;18.728;2022-10-16T03:30:26;100159.69;;;21.25;46.51
51249;BME280;39642;47.556;18.728;2022-10-16T03:32:52;100169.44;;;21.25;46.52
51249;BME280;39642;47.556;18.728;2022-10-16T03:35:22;100167.62;;;21.25;46.51
51249;BME280;39642;47.556;18.728;2022-10-16T03:37:48;100172.91;;;21.25;46.47
51249;BME280;39642;47.556;18.728;2022-10-16T03:40:15;100180.88;;;21.25;46.50
51249;BME280;39642;47.556;18.728;2022-10-16T03:42:42;100172.06;;;21.25;46.53
51249;BME280;39642;47.556;18.728;2022-10-16T03:45:09;100182.66;;;21.25;46.48
51249;BME280;39642;47.556;18.728;2022-10-16T03:47:35;100184.47;;;21.24;46.51
51249;BME280;39642;47.556;18.728;2022-10-16T03:50:01;100182.66;;;21.25;46.40
51249;BME280;39642;47.556;18.728;2022-10-16T03:52:27;100179.16;;;21.24;46.42
51249;BME280;39642;47.556;18.728;2022-10-16T03:54:53;100184.47;;;21.24;46.42
51249;BME280;39642;47.556;18.728;2022-10-16T03:57:19;100183.63;;;21.24;46.34
51249;BME280;39642;47.556;18.728;2022-10-16T03:59:46;100179.25;;;21.23;46.38
51249;BME280;39642;47.556;18.728;2022-10-16T04:02:12;100186.28;;;21.24;46.35
51249;BME280;39642;47.556;18.728;2022-10-16T04:04:38;100190.69;;;21.23;46.38
51249;BME280;39642;47.556;18.728;2022-10-16T04:07:04;100187.19;;;21.23;46.38
51249;BME280;39642;47.556;18.728;2022-10-16T04:09:30;100188.91;;;21.24;46.45
51249;BME280;39642;47.556;18.728;2022-10-16T04:11:56;100189.84;;;21.23;46.30
51249;BME280;39642;47.556;18.728;2022-10-16T04:14:22;100193.44;;;21.21;46.28
51249;BME280;39642;47.556;18.728;2022-10-16T04:16:48;100197.78;;;21.23;46.34
51249;BME280;39642;47.556;18.728;2022-10-16T04:19:14;100193.34;;;21.23;46.42
51249;BME280;39642;47.556;18.728;2022-10-16T04:21:39;100200.34;;;21.24;46.65
51249;BME280;39642;47.556;18.728;2022-10-16T04:24:05;100199.41;;;21.25;46.55
51249;BME280;39642;47.556;18.728;2022-10-16T04:26:31;100202.94;;;21.26;46.56
51249;BME280;39642;47.556;18.728;2022-10-16T04:28:57;100200.28;;;21.26;46.64
51249;BME280;39642;47.556;18.728;2022-10-16T04:31:23;100195.00;;;21.26;46.64
51249;BME280;39642;47.556;18.728;2022-10-16T04:33:49;100195.72;;;21.28;46.54
51249;BME280;39642;47.556;18.728;2022-10-16T04:36:15;100193.06;;;21.28;46.67
51249;BME280;39642;47.556;18.728;2022-10-16T04:38:40;100195.72;;;21.28;46.63
51249;BME280;39642;47.556;18.728;2022-10-16T04:41:06;100196.50;;;21.30;46.70
51249;BME280;39642;47.556;18.728;2022-10-16T04:43:33;100188.56;;;21.30;46.66
51249;BME280;39642;47.556;18.728;2022-10-16T04:45:59;100194.72;;;21.30;46.62
51249;BME280;39642;47.556;18.728;2022-10-16T04:48:26;100184.97;;;21.31;46.44
51249;BME280;39642;47.556;18.728;2022-10-16T04:50:52;100194.62;;;21.32;46.55
51249;BME280;39642;47.556;18.728;2022-10-16T04:53:18;100191.06;;;21.33;46.55
51249;BME280;39642;47.556;18.728;2022-10-16T04:55:43;100185.66;;;21.34;46.51
51249;BME280;39642;47.556;18.728;2022-10-16T04:58:09;100190.03;;;21.35;46.33
51249;BME280;39642;47.556;18.728;2022-10-16T05:00:36;100192.59;;;21.37;46.24
51249;BME280;39642;47.556;18.728;2022-10-16T05:03:02;100201.28;;;21.39;46.17
51249;BME280;39642;47.556;18.728;2022-10-16T05:05:31;100203.94;;;21.39;46.20
51249;BME280;39642;47.556;18.728;2022-10-16T05:07:57;100205.63;;;21.41;46.09
51249;BME280;39642;47.556;18.728;2022-10-16T05:10:23;100201.09;;;21.44;46.18
51249;BME280;39642;47.556;18.728;2022-10-16T05:12:49;100201.09;;;21.44;46.13
51249;BME280;39642;47.556;18.728;2022-10-16T05:15:15;100203.63;;;21.45;46.02
51249;BME280;39642;47.556;18.728;2022-10-16T05:17:41;100211.50;;;21.47;46.01
51249;BME280;39642;47.556;18.728;2022-10-16T05:20:07;100216.72;;;21.48;45.97
51249;BME280;39642;47.556;18.728;2022-10-16T05:22:33;100213.97;;;21.50;45.96
51249;BME280;39642;47.556;18.728;2022-10-16T05:24:59;100219.97;;;21.53;45.94
51249;BME280;39642;47.556;18.728;2022-10-16T05:27:24;100219.97;;;21.53;45.88
51249;BME280;39642;47.556;18.728;2022-10-16T05:29:50;100223.37;;;21.55;45.88
51249;BME280;39642;47.556;18.728;2022-10-16T05:32:18;100219.78;;;21.56;45.90
51249;BME280;39642;47.556;18.728;2022-10-16T05:34:44;100211.75;;;21.58;45.96
51249;BME280;39642;47.556;18.728;2022-10-16T05:37:11;100212.59;;;21.58;45.83
51249;BME280;39642;47.556;18.728;2022-10-16T05:39:38;100223.22;;;21.58;45.87
51249;BME280;39642;47.556;18.728;2022-10-16T05:42:04;100210.81;;;21.59;45.83
51249;BME280;39642;47.556;18.728;2022-10-16T05:44:30;100223.97;;;21.60;45.83
51249;BME280;39642;47.556;18.728;2022-10-16T05:46:56;100226.63;;;21.60;45.84
51249;BME280;39642;47.556;18.728;2022-10-16T05:49:22;100223.97;;;21.60;45.90
51249;BME280;39642;47.556;18.728;2022-10-16T05:51:48;100236.28;;;21.61;45.83
51249;BME280;39642;47.556;18.728;2022-10-16T05:54:14;100246.87;;;21.61;45.83
51249;BME280;39642;47.556;18.728;2022-10-16T05:56:40;100251.31;;;21.61;45.89
51249;BME280;39642;47.556;18.728;2022-10-16T05:59:06;100246.87;;;21.61;46.03
51249;BME280;39642;47.556;18.728;2022-10-16T06:01:32;100240.72;;;21.61;45.83
51249;BME280;39642;47.556;18.728;2022-10-16T06:03:58;100249.53;;;21.61;45.98
51249;BME280;39642;47.556;18.728;2022-10-16T06:06:26;100254.81;;;21.61;45.94
51249;BME280;39642;47.556;18.728;2022-10-16T06:08:53;100262.03;;;21.59;45.96
51249;BME280;39642;47.556;18.728;2022-10-16T06:11:25;100261.94;;;21.61;45.98
51249;BME280;39642;47.556;18.728;2022-10-16T06:13:53;100269.09;;;21.59;46.04
51249;BME280;39642;47.556;18.728;2022-10-16T06:16:20;100266.38;;;21.60;45.98
51249;BME280;39642;47.556;18.728;2022-10-16T06:18:46;100268.19;;;21.60;45.98
51249;BME280;39642;47.556;18.728;2022-10-16T06:21:16;100276.03;;;21.61;45.91
51249;BME280;39642;47.556;18.728;2022-10-16T06:23:43;100279.69;;;21.59;45.89
51249;BME280;39642;47.556;18.728;2022-10-16T06:26:11;100277.94;;;21.59;45.84
51249;BME280;39642;47.556;18.728;2022-10-16T06:28:37;100283.22;;;21.59;45.75
51249;BME280;39642;47.556;18.728;2022-10-16T06:31:05;100288.53;;;21.59;45.74
51249;BME280;39642;47.556;18.728;2022-10-16T06:33:31;100290.31;;;21.59;45.68
51249;BME280;39642;47.556;18.728;2022-10-16T06:36:01;100288.53;;;21.59;45.68
51249;BME280;39642;47.556;18.728;2022-10-16T06:38:29;100300.91;;;21.59;45.68
51249;BME280;39642;47.556;18.728;2022-10-16T06:40:55;100314.16;;;21.59;45.66
51249;BME280;39642;47.556;18.728;2022-10-16T06:43:21;100325.63;;;21.59;45.91
51249;BME280;39642;47.556;18.728;2022-10-16T06:45:54;100329.19;;;21.58;45.91
51249;BME280;39642;47.556;18.728;2022-10-16T06:48:20;100328.28;;;21.59;45.85
51249;BME280;39642;47.556;18.728;2022-10-16T06:51:00;100328.28;;;21.59;45.83
51249;BME280;39642;47.556;18.728;2022-10-16T06:53:28;100320.34;;;21.59;45.67
51249;BME280;39642;47.556;18.728;2022-10-16T06:55:54;100327.31;;;21.60;45.74
51249;BME280;39642;47.556;18.728;2022-10-16T06:58:20;100332.56;;;21.62;45.35
51249;BME280;39642;47.556;18.728;2022-10-16T07:00:47;100328.19;;;21.61;46.06
51249;BME280;39642;47.556;18.728;2022-10-16T07:03:13;100321.06;;;21.61;46.13
51249;BME280;39642;47.556;18.728;2022-10-16T07:05:42;100326.47;;;21.60;46.15
51249;BME280;39642;47.556;18.728;2022-10-16T07:08:08;100330.06;;;21.59;46.06
51249;BME280;39642;47.556;18.728;2022-10-16T07:10:34;100331.84;;;21.58;45.63
51249;BME280;39642;47.556;18.728;2022-10-16T07:13:01;100338.97;;;21.58;45.70
51249;BME280;39642;47.556;18.728;2022-10-16T07:15:27;100336.38;;;21.56;45.26
51249;BME280;39642;47.556;18.728;2022-10-16T07:17:53;100335.53;;;21.56;45.11
51249;BME280;39642;47.556;18.728;2022-10-16T07:20:19;100338.09;;;21.57;45.07
51249;BME280;39642;47.556;18.728;2022-10-16T07:22:45;100339.88;;;21.57;45.02
51249;BME280;39642;47.556;18.728;2022-10-16T07:25:12;100348.72;;;21.57;44.64
51249;BME280;39642;47.556;18.728;2022-10-16T07:27:38;100358.44;;;21.57;44.93
51249;BME280;39642;47.556;18.728;2022-10-16T07:30:04;100362.72;;;21.59;44.00
51249;BME280;39642;47.556;18.728;2022-10-16T07:32:31;100360.94;;;21.60;43.74
51249;BME280;39642;47.556;18.728;2022-10-16T07:34:57;100361.78;;;21.60;43.89
51249;BME280;39642;47.556;18.728;2022-10-16T07:37:23;100368.78;;;21.61;44.01
51249;BME280;39642;47.556;18.728;2022-10-16T07:39:49;100376.59;;;21.65;44.06
51249;BME280;39642;47.556;18.728;2022-10-16T07:42:15;100380.09;;;21.65;44.43
51249;BME280;39642;47.556;18.728;2022-10-16T07:44:41;100380.84;;;21.67;44.71
51249;BME280;39642;47.556;18.728;2022-10-16T07:47:07;100372.91;;;21.67;44.95
51249;BME280;39642;47.556;18.728;2022-10-16T07:49:33;100373.75;;;21.68;45.27
51249;BME280;39642;47.556;18.728;2022-10-16T07:51:59;100371.09;;;21.68;45.65
51249;BME280;39642;47.556;18.728;2022-10-16T07:54:25;100373.75;;;21.68;45.87
51249;BME280;39642;47.556;18.728;2022-10-16T07:56:50;100371.94;;;21.68;45.89
51249;BME280;39642;47.556;18.728;2022-10-16T07:59:16;100371.09;;;21.68;45.98
51249;BME280;39642;47.556;18.728;2022-10-16T08:01:42;100371.09;;;21.68;46.14
51249;BME280;39642;47.556;18.728;2022-10-16T08:04:09;100373.69;;;21.69;46.19
51249;BME280;39642;47.556;18.728;2022-10-16T08:06:40;100371.88;;;21.70;46.14
51249;BME280;39642;47.556;18.728;2022-10-16T08:09:06;100374.53;;;21.70;46.07
51249;BME280;39642;47.556;18.728;2022-10-16T08:11:33;100378.91;;;21.71;46.11
51249;BME280;39642;47.556;18.728;2022-10-16T08:13:59;100383.25;;;21.72;46.34
51249;BME280;39642;47.556;18.728;2022-10-16T08:16:25;100393.00;;;21.71;46.70
51249;BME280;39642;47.556;18.728;2022-10-16T08:18:50;100395.56;;;21.73;47.22
51249;BME280;39642;47.556;18.728;2022-10-16T08:21:19;100397.28;;;21.74;47.34
51249;BME280;39642;47.556;18.728;2022-10-16T08:23:45;100394.56;;;21.75;47.44
51249;BME280;39642;47.556;18.728;2022-10-16T08:26:11;100393.59;;;21.76;47.55
51249;BME280;39642;47.556;18.728;2022-10-16T08:28:38;100402.41;;;21.77;47.61
51249;BME280;39642;47.556;18.728;2022-10-16T08:31:12;100405.00;;;21.78;47.63
51249;BME280;39642;47.556;18.728;2022-10-16T08:33:40;100411.13;;;21.79;47.92
51249;BME280;39642;47.556;18.728;2022-10-16T08:36:06;100414.62;;;21.79;47.89
51249;BME280;39642;47.556;18.728;2022-10-16T08:38:33;100418.16;;;21.80;48.14
51249;BME280;39642;47.556;18.728;2022-10-16T08:41:25;100412.88;;;21.80;48.32
51249;BME280;39642;47.556;18.728;2022-10-16T08:49:14;100418.84;;;21.83;48.71
51249;BME280;39642;47.556;18.728;2022-10-16T08:51:41;100407.22;;;21.86;48.54
51249;BME280;39642;47.556;18.728;2022-10-16T08:56:47;100419.63;;;21.86;48.75
51249;BME280;39642;47.556;18.728;2022-10-16T08:59:14;100411.66;;;21.86;48.66
51249;BME280;39642;47.556;18.728;2022-10-16T09:01:45;100419.63;;;21.86;48.67
51249;BME280;39642;47.556;18.728;2022-10-16T09:06:58;100409.09;;;21.84;48.59
51249;BME280;39642;47.556;18.728;2022-10-16T09:09:57;100422.28;;;21.86;48.97
51249;BME280;39642;47.556;18.728;2022-10-16T09:12:35;100429.28;;;21.87;49.06
51249;BME280;39642;47.556;18.728;2022-10-16T09:20:39;100423.03;;;21.88;49.07
51249;BME280;39642;47.556;18.728;2022-10-16T09:23:13;100430.91;;;21.89;49.29
51249;BME280;39642;47.556;18.728;2022-10-16T09:25:48;100432.63;;;21.90;49.48
51249;BME280;39642;47.556;18.728;2022-10-16T09:28:17;100442.31;;;21.91;49.50
51249;BME280;39642;47.556;18.728;2022-10-16T09:30:44;100438.69;;;21.92;49.68
51249;BME280;39642;47.556;18.728;2022-10-16T09:33:12;100437.78;;;21.93;49.66
51249;BME280;39642;47.556;18.728;2022-10-16T09:35:43;100444.78;;;21.94;49.73
51249;BME280;39642;47.556;18.728;2022-10-16T09:38:23;100447.34;;;21.96;49.49
51249;BME280;39642;47.556;18.728;2022-10-16T09:40:50;100451.81;;;21.95;49.61
51249;BME280;39642;47.556;18.728;2022-10-16T09:43:25;100451.63;;;21.98;49.96
51249;BME280;39642;47.556;18.728;2022-10-16T09:46:07;100451.63;;;21.98;49.96
51249;BME280;39642;47.556;18.728;2022-10-16T09:48:44;100450.69;;;21.99;49.98
51249;BME280;39642;47.556;18.728;2022-10-16T09:51:18;100442.66;;;22.01;50.01
51249;BME280;39642;47.556;18.728;2022-10-16T09:53:46;100442.66;;;22.01;50.02
51249;BME280;39642;47.556;18.728;2022-10-16T09:56:22;100443.50;;;22.01;50.33
51249;BME280;39642;47.556;18.728;2022-10-16T09:58:53;100434.63;;;22.02;50.51
51249;BME280;39642;47.556;18.728;2022-10-16T10:01:20;100439.94;;;22.02;50.46
51249;BME280;39642;47.556;18.728;2022-10-16T10:03:46;100430.16;;;22.03;50.66
51249;BME280;39642;47.556;18.728;2022-10-16T10:06:34;100431.88;;;22.04;50.79
51249;BME280;39642;47.556;18.728;2022-10-16T10:16:46;100431.78;;;22.06;50.92
51249;BME280;39642;47.556;18.728;2022-10-16T10:19:17;100431.78;;;22.06;50.92
51249;BME280;39642;47.556;18.728;2022-10-16T10:21:45;100434.44;;;22.06;50.85
51249;BME280;39642;47.556;18.728;2022-10-16T10:24:12;100427.34;;;22.06;51.03
51249;BME280;39642;47.556;18.728;2022-10-16T10:26:41;100436.16;;;22.07;51.10
51249;BME280;39642;47.556;18.728;2022-10-16T10:29:31;100430.88;;;22.07;51.00
51249;BME280;39642;47.556;18.728;2022-10-16T10:37:58;100438.72;;;22.08;50.34
51249;BME280;39642;47.556;18.728;2022-10-16T10:45:42;100443.00;;;22.11;50.23
51249;BME280;39642;47.556;18.728;2022-10-16T10:51:09;100437.69;;;22.11;50.37
51249;BME280;39642;47.556;18.728;2022-10-16T11:02:00;100425.56;;;22.07;49.78
51249;BME280;39642;47.556;18.728;2022-10-16T11:05:24;100428.28;;;22.05;49.87
51249;BME280;39642;47.556;18.728;2022-10-16T11:07:33;100433.59;;;22.05;49.75
51249;BME280;39642;47.556;18.728;2022-10-16T11:10:14;100417.75;;;22.03;49.24
51249;BME280;39642;47.556;18.728;2022-10-16T11:12:45;100413.47;;;22.01;46.53
51249;BME280;39642;47.556;18.728;2022-10-16T11:25:33;100412.63;;;22.00;45.54
51249;BME280;39642;47.556;18.728;2022-10-16T11:31:08;100415.28;;;22.00;45.61
51249;BME280;39642;47.556;18.728;2022-10-16T11:33:40;100420.59;;;22.00;45.25
51249;BME280;39642;47.556;18.728;2022-10-16T11:36:29;100413.56;;;21.99;45.18
51249;BME280;39642;47.556;18.728;2022-10-16T11:39:04;100425.03;;;22.00;45.11
51249;BME280;39642;47.556;18.728;2022-10-16T11:44:27;100416.22;;;21.99;44.89
51249;BME280;39642;47.556;18.728;2022-10-16T11:55:45;100404.69;;;22.00;44.61
51249;BME280;39642;47.556;18.728;2022-10-16T11:58:31;100411.78;;;22.00;44.63
51249;BME280;39642;47.556;18.728;2022-10-16T12:01:03;100410.06;;;21.99;44.55
51249;BME280;39642;47.556;18.728;2022-10-16T12:06:31;100408.34;;;21.98;44.50
51249;BME280;39642;47.556;18.728;2022-10-16T12:09:00;100400.41;;;21.98;44.57
51249;BME280;39642;47.556;18.728;2022-10-16T12:11:38;100398.59;;;21.98;44.67
51249;BME280;39642;47.556;18.728;2022-10-16T12:16:37;100399.44;;;21.99;44.58
51249;BME280;39642;47.556;18.728;2022-10-16T12:19:11;100387.16;;;21.98;44.52
51249;BME280;39642;47.556;18.728;2022-10-16T12:21:37;100383.63;;;21.97;44.55
51249;BME280;39642;47.556;18.728;2022-10-16T12:24:03;100387.16;;;21.98;44.42
51249;BME280;39642;47.556;18.728;2022-10-16T12:26:44;100387.16;;;21.98;44.39
51249;BME280;39642;47.556;18.728;2022-10-16T12:29:23;100385.41;;;21.97;44.40
51249;BME280;39642;47.556;18.728;2022-10-16T12:31:54;100388.91;;;21.97;44.41
51249;BME280;39642;47.556;18.728;2022-10-16T12:34:43;100388.91;;;21.97;44.26
51249;BME280;39642;47.556;18.728;2022-10-16T12:37:35;100388.91;;;21.97;44.27
51249;BME280;39642;47.556;18.728;2022-10-16T12:40:12;100389.78;;;21.98;44.40
51249;BME280;39642;47.556;18.728;2022-10-16T12:42:39;100389.87;;;21.96;44.33
51249;BME280;39642;47.556;18.728;2022-10-16T12:47:54;100392.53;;;21.96;44.31
51249;BME280;39642;47.556;18.728;2022-10-16T12:52:49;100395.19;;;21.96;44.33
51249;BME280;39642;47.556;18.728;2022-10-16T12:55:20;100393.47;;;21.95;44.32
51249;BME280;39642;47.556;18.728;2022-10-16T13:00:43;100408.44;;;21.96;44.20
51249;BME280;39642;47.556;18.728;2022-10-16T13:03:42;100397.81;;;21.96;44.04
51249;BME280;39642;47.556;18.728;2022-10-16T13:06:34;100409.28;;;21.97;43.98
51249;BME280;39642;47.556;18.728;2022-10-16T13:09:24;100402.28;;;21.96;43.98
51249;BME280;39642;47.556;18.728;2022-10-16T13:20:03;100422.66;;;21.95;44.12
51249;BME280;39642;47.556;18.728;2022-10-16T13:25:35;100416.47;;;21.95;44.17
51249;BME280;39642;47.556;18.728;2022-10-16T13:28:10;100412.88;;;21.96;44.24
51249;BME280;39642;47.556;18.728;2022-10-16T13:30:42;100415.63;;;21.94;44.41
51249;BME280;39642;47.556;18.728;2022-10-16T13:33:35;100414.75;;;21.94;44.32
51249;BME280;39642;47.556;18.728;2022-10-16T13:36:03;100413.91;;;21.93;44.41
51249;BME280;39642;47.556;18.728;2022-10-16T13:38:34;100425.38;;;21.94;44.25
51249;BME280;39642;47.556;18.728;2022-10-16T13:41:05;100422.72;;;21.94;44.18
51249;BME280;39642;47.556;18.728;2022-10-16T13:43:41;100415.63;;;21.94;44.09
51249;BME280;39642;47.556;18.728;2022-10-16T13:46:14;100412.97;;;21.94;44.17
51249;BME280;39642;47.556;18.728;2022-10-16T13:48:41;100416.47;;;21.95;44.40
51249;BME280;39642;47.556;18.728;2022-10-16T13:51:16;100426.28;;;21.93;44.37
51249;BME280;39642;47.556;18.728;2022-10-16T13:53:43;100415.69;;;21.93;44.40
51249;BME280;39642;47.556;18.728;2022-10-16T13:56:18;100417.50;;;21.92;44.28
51249;BME280;39642;47.556;18.728;2022-10-16T13:58:45;100419.28;;;21.92;44.30
51249;BME280;39642;47.556;18.728;2022-10-16T14:01:42;100420.22;;;21.91;44.22
51249;BME280;39642;47.556;18.728;2022-10-16T14:04:11;100423.75;;;21.91;44.23
51249;BME280;39642;47.556;18.728;2022-10-16T14:06:42;100420.22;;;21.91;44.15
51249;BME280;39642;47.556;18.728;2022-10-16T14:09:23;100421.09;;;21.91;44.16
51249;BME280;39642;47.556;18.728;2022-10-16T14:11:59;100420.22;;;21.91;44.34
51249;BME280;39642;47.556;18.728;2022-10-16T14:14:35;100419.38;;;21.90;44.24
51249;BME280;39642;47.556;18.728;2022-10-16T14:17:06;100422.03;;;21.90;44.22
51249;BME280;39642;47.556;18.728;2022-10-16T14:19:32;100425.62;;;21.89;44.08
51249;BME280;39642;47.556;18.728;2022-10-16T14:21:59;100423.81;;;21.90;44.10
51249;BME280;39642;47.556;18.728;2022-10-16T14:24:32;100421.16;;;21.90;44.09
51249;BME280;39642;47.556;18.728;2022-10-16T14:26:59;100431.78;;;21.90;44.06
51249;BME280;39642;47.556;18.728;2022-10-16T14:29:28;100429.97;;;21.90;43.92
51249;BME280;39642;47.556;18.728;2022-10-16T14:32:04;100432.63;;;21.90;43.75
51249;BME280;39642;47.556;18.728;2022-10-16T14:34:33;100436.22;;;21.89;43.43
51249;BME280;39642;47.556;18.728;2022-10-16T14:37:13;100430.91;;;21.89;43.85
51249;BME280;39642;47.556;18.728;2022-10-16T14:39:42;100433.56;;;21.89;43.96
51249;BME280;39642;47.556;18.728;2022-10-16T14:42:16;100431.84;;;21.88;43.86
51249;BME280;39642;47.556;18.728;2022-10-16T14:44:44;100431.84;;;21.88;43.78
51249;BME280;39642;47.556;18.728;2022-10-16T14:47:17;100434.50;;;21.88;43.87
51249;BME280;39642;47.556;18.728;2022-10-16T14:49:48;100436.31;;;21.88;44.02